createdAt,value
2024-04-19T00:02:22.117Z,101337.78
2024-04-19T00:04:49.436Z,101329.91
2024-04-19T00:07:16.802Z,101324.63
2024-04-19T00:09:44.453Z,101316.66
2024-04-19T00:12:11.664Z,101320.91
2024-04-19T00:14:38.806Z,101316.44
2024-04-19T00:17:06.194Z,101308.34
2024-04-19T00:19:33.648Z,101304.69
2024-04-19T00:22:01.017Z,101293.22
2024-04-19T00:24:28.242Z,101282.63
2024-04-19T00:26:55.391Z,101287.72
2024-04-19T00:29:22.720Z,101275.44
2024-04-19T00:31:49.810Z,101270.13
2024-04-19T00:34:17.001Z,101272.69
2024-04-19T00:36:44.744Z,101277.91
2024-04-19T00:39:12.150Z,101266.56
2024-04-19T00:41:39.428Z,101263.06
2024-04-19T00:44:06.663Z,101267.41
2024-04-19T00:46:34.658Z,101271.78
2024-04-19T00:49:02.077Z,101262.13
2024-04-19T00:51:31.828Z,101254.31
2024-04-19T00:54:01.539Z,101252.56
2024-04-19T00:56:29.053Z,101244.72
2024-04-19T00:58:56.775Z,101242.00
2024-04-19T01:01:24.463Z,101238.50
2024-04-19T01:03:51.875Z,101238.50
2024-04-19T01:06:19.335Z,101233.19
2024-04-19T01:08:46.934Z,101235.81
2024-04-19T01:11:14.539Z,101230.59
2024-04-19T01:13:43.973Z,101221.00
2024-04-19T01:16:11.200Z,101214.91
2024-04-19T01:18:38.410Z,101212.31
2024-04-19T01:21:10.082Z,101208.81
2024-04-19T01:23:37.693Z,101204.47
2024-04-19T01:26:06.036Z,101195.75
2024-04-19T01:28:33.517Z,101203.63
2024-04-19T01:31:03.928Z,101198.41
2024-04-19T01:33:34.382Z,101194.91
2024-04-19T01:36:01.586Z,101196.66
2024-04-19T01:38:28.989Z,101188.88
2024-04-19T01:40:59.122Z,101179.19
2024-04-19T01:43:35.087Z,101183.56
2024-04-19T01:46:02.334Z,101172.19
2024-04-19T01:48:32.851Z,101160.81
2024-04-19T01:51:03.353Z,101164.31
2024-04-19T01:53:31.911Z,101161.66
2024-04-19T01:56:01.002Z,101146.75
2024-04-19T01:58:28.294Z,101139.72
2024-04-19T02:00:55.636Z,101135.34
2024-04-19T02:03:23.265Z,101130.97
2024-04-19T02:05:50.442Z,101119.56
2024-04-19T02:08:17.697Z,101109.09
2024-04-19T02:10:45.132Z,101105.59
2024-04-19T02:13:15.294Z,101102.16
2024-04-19T02:15:42.647Z,101096.00
2024-04-19T02:18:09.875Z,101095.13
2024-04-19T02:20:37.238Z,101087.25
2024-04-19T02:23:05.102Z,101085.50
2024-04-19T02:25:32.326Z,101087.25
2024-04-19T02:28:18.656Z,101076.75
2024-04-19T02:31:01.047Z,101078.50
2024-04-19T02:33:32.029Z,101062.75
2024-04-19T02:36:01.733Z,101061.88
2024-04-19T02:38:31.500Z,101053.19
2024-04-19T02:40:58.694Z,101044.47
2024-04-19T02:43:25.861Z,101043.59
2024-04-19T02:45:57.967Z,101026.97
2024-04-19T02:48:28.456Z,101023.47
2024-04-19T02:50:55.851Z,101023.44
2024-04-19T02:53:23.180Z,101019.94
2024-04-19T02:55:52.216Z,101014.69
2024-04-19T02:58:19.959Z,101018.19
2024-04-19T03:00:48.971Z,101021.69
2024-04-19T03:03:16.488Z,101004.28
2024-04-19T03:05:45.361Z,100997.25
2024-04-19T03:08:12.831Z,100996.38
2024-04-19T03:10:41.549Z,100991.16
2024-04-19T03:13:11.760Z,100987.66
2024-04-19T03:15:39.725Z,100993.75
2024-04-19T03:18:07.839Z,100985.06
2024-04-19T03:20:35.507Z,100984.22
2024-04-19T03:23:03.227Z,100981.63
2024-04-19T03:25:31.239Z,100980.72
2024-04-19T03:27:58.464Z,100972.03
2024-04-19T03:30:27.529Z,100962.41
2024-04-19T03:32:54.886Z,100954.56
2024-04-19T03:35:25.024Z,100949.38
2024-04-19T03:37:52.524Z,100946.72
2024-04-19T03:40:19.709Z,100945.88
2024-04-19T03:42:49.122Z,100949.34
2024-04-19T03:45:35.958Z,100938.00
2024-04-19T03:48:03.598Z,100928.41
2024-04-19T03:50:31.164Z,100921.44
2024-04-19T03:52:58.365Z,100924.94
2024-04-19T03:55:25.572Z,100921.44
2024-04-19T03:57:52.846Z,100906.59
2024-04-19T04:00:20.460Z,100921.47
2024-04-19T04:02:50.816Z,100912.72
2024-04-19T04:05:18.122Z,100921.44
2024-04-19T04:07:45.348Z,100907.47
2024-04-19T04:10:12.911Z,100897.91
2024-04-19T04:12:40.298Z,100897.91
2024-04-19T04:15:08.555Z,100895.31
2024-04-19T04:17:35.938Z,100889.19
2024-04-19T04:20:04.796Z,100877.84
2024-04-19T04:22:35.259Z,100869.97
2024-04-19T04:25:02.481Z,100867.34
2024-04-19T04:27:29.977Z,100859.53
2024-04-19T04:29:57.206Z,100852.53
2024-04-19T04:32:24.340Z,100849.94
2024-04-19T04:34:52.835Z,100858.72
2024-04-19T04:37:20.108Z,100863.03
2024-04-19T04:39:47.470Z,100856.09
2024-04-19T04:42:14.744Z,100854.38
2024-04-19T04:44:42.274Z,100856.09
2024-04-19T04:47:10.009Z,100855.25
2024-04-19T04:49:37.985Z,100853.50
2024-04-19T04:52:05.428Z,100849.16
2024-04-19T04:54:34.045Z,100846.53
2024-04-19T04:57:02.719Z,100847.41
2024-04-19T04:59:29.907Z,100856.16
2024-04-19T05:01:57.030Z,100838.72
2024-04-19T05:04:24.351Z,100843.16
2024-04-19T05:06:51.728Z,100839.66
2024-04-19T05:09:19.411Z,100827.47
2024-04-19T05:11:48.077Z,100830.97
2024-04-19T05:14:15.305Z,100819.66
2024-04-19T05:16:42.647Z,100814.47
2024-04-19T05:19:10.174Z,100812.72
2024-04-19T05:21:37.588Z,100807.47
2024-04-19T05:24:05.223Z,100811.84
2024-04-19T05:26:32.447Z,100818.84
2024-04-19T05:28:59.874Z,100818.00
2024-04-19T05:31:27.288Z,100821.56
2024-04-19T05:33:55.259Z,100817.22
2024-04-19T05:36:22.668Z,100816.34
2024-04-19T05:38:50.145Z,100819.84
2024-04-19T05:41:18.592Z,100812.94
2024-04-19T05:43:49.124Z,100805.94
2024-04-19T05:46:16.412Z,100802.47
2024-04-19T05:48:43.955Z,100804.22
2024-04-19T05:51:11.343Z,100812.09
2024-04-19T05:53:38.558Z,100804.28
2024-04-19T05:56:05.947Z,100794.69
2024-04-19T05:58:33.438Z,100802.56
2024-04-19T06:01:02.594Z,100801.72
2024-04-19T06:03:30.278Z,100802.66
2024-04-19T06:05:57.460Z,100800.06
2024-04-19T06:08:24.977Z,100799.22
2024-04-19T06:10:52.370Z,100802.78
2024-04-19T06:13:19.482Z,100796.69
2024-04-19T06:15:46.738Z,100800.19
2024-04-19T06:18:14.138Z,100803.72
2024-04-19T06:20:43.673Z,100793.28
2024-04-19T06:23:10.834Z,100794.22
2024-04-19T06:25:38.484Z,100786.44
2024-04-19T06:28:05.969Z,100783.91
2024-04-19T06:30:33.248Z,100783.88
2024-04-19T06:33:03.780Z,100789.16
2024-04-19T06:35:34.644Z,100779.63
2024-04-19T06:38:01.801Z,100774.41
2024-04-19T06:40:31.427Z,100766.56
2024-04-19T06:42:58.846Z,100771.88
2024-04-19T06:45:26.054Z,100760.50
2024-04-19T06:47:53.244Z,100764.03
2024-04-19T06:50:20.614Z,100757.97
2024-04-19T06:52:47.993Z,100753.69
2024-04-19T06:55:15.226Z,100750.28
2024-04-19T06:57:42.637Z,100749.47
2024-04-19T07:00:23.652Z,100744.25
2024-04-19T07:03:03.453Z,100744.31
2024-04-19T07:05:31.541Z,100739.06
2024-04-19T07:08:00.533Z,100732.09
2024-04-19T07:10:27.933Z,100736.53
2024-04-19T07:12:55.266Z,100738.31
2024-04-19T07:15:22.778Z,100732.22
2024-04-19T07:17:53.541Z,100733.16
2024-04-19T07:20:23.942Z,100724.41
2024-04-19T07:22:51.305Z,100718.31
2024-04-19T07:25:18.725Z,100724.41
2024-04-19T07:27:47.044Z,100727.03
2024-04-19T07:30:16.654Z,100724.41
2024-04-19T07:32:44.297Z,100726.16
2024-04-19T07:35:11.779Z,100729.66
2024-04-19T07:37:39.025Z,100727.94
2024-04-19T07:40:07.049Z,100721.78
2024-04-19T07:42:34.637Z,100721.78
2024-04-19T07:45:02.662Z,100713.94
2024-04-19T07:47:29.905Z,100705.16
2024-04-19T07:49:57.442Z,100710.41
2024-04-19T07:52:26.105Z,100704.28
2024-04-19T07:54:53.615Z,100703.41
2024-04-19T07:57:23.749Z,100708.66
2024-04-19T07:59:51.315Z,100693.75
2024-04-19T08:02:19.274Z,100694.63
2024-04-19T08:04:46.724Z,100702.50
2024-04-19T08:07:23.939Z,100691.94
2024-04-19T08:09:55.932Z,100697.13
2024-04-19T08:12:23.357Z,100682.13
2024-04-19T08:14:50.857Z,100674.19
2024-04-19T08:17:18.290Z,100675.78
2024-04-19T08:19:45.472Z,100671.50
2024-04-19T08:22:12.858Z,100676.72
2024-04-19T08:24:40.390Z,100669.53
2024-04-19T08:27:07.851Z,100669.22
2024-04-19T08:29:36.234Z,100665.53
2024-04-19T08:32:08.562Z,100669.88
2024-04-19T08:34:36.189Z,100668.84
2024-04-19T08:37:03.662Z,100669.72
2024-04-19T08:39:33.804Z,100668.91
2024-04-19T08:42:07.124Z,100659.03
2024-04-19T08:44:35.158Z,100668.06
2024-04-19T08:47:05.519Z,100665.50
2024-04-19T08:49:34.017Z,100661.69
2024-04-19T08:52:14.449Z,100661.50
2024-04-19T08:54:49.879Z,100659.59
2024-04-19T08:57:17.427Z,100661.22
2024-04-19T08:59:48.559Z,100658.56
2024-04-19T09:02:20.627Z,100656.00
2024-04-19T09:04:47.820Z,100657.03
2024-04-19T09:07:15.070Z,100661.69
2024-04-19T09:09:44.239Z,100647.56
2024-04-19T09:12:11.584Z,100651.78
2024-04-19T09:14:38.887Z,100649.81
2024-04-19T09:17:06.202Z,100647.78
2024-04-19T09:19:36.911Z,100645.50
2024-04-19T09:22:04.325Z,100653.03
2024-04-19T09:24:31.570Z,100651.91
2024-04-19T09:27:14.250Z,100657.72
2024-04-19T09:29:43.721Z,100647.75
2024-04-19T09:32:11.389Z,100654.97
2024-04-19T09:34:38.678Z,100650.47
2024-04-19T09:37:06.373Z,100663.00
2024-04-19T09:39:38.426Z,100646.78
2024-04-19T09:42:06.781Z,100658.69
2024-04-19T09:44:35.022Z,100657.59
2024-04-19T09:47:07.008Z,100660.00
2024-04-19T09:49:34.571Z,100653.56
2024-04-19T09:52:05.404Z,100658.13
2024-04-19T09:54:39.249Z,100661.88
2024-04-19T09:57:08.385Z,100653.84
2024-04-19T09:59:37.470Z,100654.97
2024-04-19T10:02:14.125Z,100653.13
2024-04-19T10:04:47.888Z,100651.25
2024-04-19T10:07:16.917Z,100656.63
2024-04-19T10:09:45.308Z,100650.31
2024-04-19T10:12:13.204Z,100646.34
2024-04-19T10:14:40.538Z,100659.22
2024-04-19T10:17:08.690Z,100642.94
2024-04-19T10:19:45.450Z,100644.84
2024-04-19T10:22:26.093Z,100640.50
2024-04-19T10:25:03.991Z,100644.00
2024-04-19T10:27:34.903Z,100649.34
2024-04-19T10:30:11.265Z,100638.59
2024-04-19T10:32:43.771Z,100640.22
2024-04-19T10:35:14.251Z,100645.78
2024-04-19T10:37:41.570Z,100631.19
2024-04-19T10:40:15.711Z,100640.75
2024-04-19T10:42:43.453Z,100629.22
2024-04-19T10:45:17.705Z,100630.47
2024-04-19T10:47:45.409Z,100624.47
2024-04-19T10:50:13.109Z,100617.72
2024-04-19T10:52:43.453Z,100624.66
2024-04-19T10:55:11.420Z,100620.00
2024-04-19T10:57:38.780Z,100623.50
2024-04-19T11:00:07.978Z,100621.16
2024-04-19T11:02:36.653Z,100628.31
2024-04-19T11:05:04.314Z,100619.72
2024-04-19T11:07:32.016Z,100625.28
2024-04-19T11:10:00.336Z,100617.19
2024-04-19T11:12:28.726Z,100618.34
2024-04-19T11:14:58.604Z,100606.34
2024-04-19T11:17:26.379Z,100636.69
2024-04-19T11:19:53.982Z,100640.50
2024-04-19T11:22:21.514Z,100652.03
2024-04-19T11:24:49.194Z,100651.66
2024-04-19T11:27:16.738Z,100648.16
2024-04-19T11:29:44.360Z,100642.63
2024-04-19T11:32:11.690Z,100648.16
2024-04-19T11:34:42.388Z,100638.78
2024-04-19T11:37:18.756Z,100642.69
2024-04-19T11:39:49.288Z,100644.56
2024-04-19T11:42:25.879Z,100679.94
2024-04-19T11:44:54.896Z,100652.59
2024-04-19T11:47:22.988Z,100654.50
2024-04-19T11:49:51.232Z,100647.38
2024-04-19T11:52:21.145Z,100648.03
2024-04-19T11:54:49.475Z,100645.09
2024-04-19T11:57:16.907Z,100630.50
2024-04-19T11:59:44.360Z,100648.41
2024-04-19T12:02:11.584Z,100644.09
2024-04-19T12:04:42.908Z,100645.03
2024-04-19T12:07:13.468Z,100654.41
2024-04-19T12:09:44.034Z,100642.25
2024-04-19T12:12:52.197Z,100649.31
2024-04-19T12:15:44.792Z,100642.41
2024-04-19T12:17:50.391Z,100661.00
2024-04-19T12:20:25.300Z,100662.78
2024-04-19T12:23:07.700Z,100656.66
2024-04-19T12:25:36.651Z,100681.91
2024-04-19T12:28:04.600Z,100691.53
2024-04-19T12:30:32.049Z,100690.25
2024-04-19T12:33:01.757Z,100680.84
2024-04-19T12:35:29.492Z,100686.44
2024-04-19T12:37:59.496Z,100662.50
2024-04-19T12:40:26.748Z,100687.75
2024-04-19T12:42:54.701Z,100678.50
2024-04-19T12:45:23.507Z,100704.56
2024-04-19T12:47:51.169Z,100687.28
2024-04-19T12:50:18.620Z,100683.84
2024-04-19T12:52:45.945Z,100675.06
2024-04-19T12:55:13.395Z,100687.31
2024-04-19T12:57:40.676Z,100681.13
2024-04-19T13:00:16.090Z,100702.09
2024-04-19T13:02:55.663Z,100680.59
2024-04-19T13:05:24.136Z,100695.63
2024-04-19T13:07:51.672Z,100727.22
2024-04-19T13:10:23.187Z,100741.00
2024-04-19T13:12:50.744Z,100724.72
2024-04-19T13:15:18.289Z,100735.25
2024-04-19T13:17:45.507Z,100733.34
2024-04-19T13:20:12.870Z,100733.38
2024-04-19T13:22:40.123Z,100732.47
2024-04-19T13:25:07.897Z,100722.75
2024-04-19T13:27:35.732Z,100734.13
2024-04-19T13:30:04.358Z,100741.91
2024-04-19T13:32:32.018Z,100741.00
2024-04-19T13:34:59.659Z,100740.00
2024-04-19T13:37:27.501Z,100732.69
2024-04-19T13:39:55.252Z,100736.72
2024-04-19T13:42:22.875Z,100749.75
2024-04-19T13:44:52.350Z,100735.34
2024-04-19T13:47:21.026Z,100739.97
2024-04-19T13:49:48.583Z,100770.31
2024-04-19T13:52:15.825Z,100762.47
2024-04-19T13:54:43.089Z,100768.88
2024-04-19T13:57:10.708Z,100769.94
2024-04-19T13:59:38.119Z,100772.63
2024-04-19T14:02:05.608Z,100784.16
2024-04-19T14:04:32.865Z,100784.13
2024-04-19T14:07:02.669Z,100769.91
2024-04-19T14:09:31.531Z,100789.41
2024-04-19T14:11:58.984Z,100786.81
2024-04-19T14:14:27.455Z,100784.13
2024-04-19T14:16:55.422Z,100794.50
2024-04-19T14:19:30.201Z,100787.00
2024-04-19T14:21:57.420Z,100792.69
2024-04-19T14:24:27.005Z,100775.44
2024-04-19T14:26:54.419Z,100781.09
2024-04-19T14:29:23.374Z,100787.72
2024-04-19T14:31:51.359Z,100797.81
2024-04-19T14:34:20.010Z,100827.13
2024-04-19T14:36:47.916Z,100842.19
2024-04-19T14:39:15.318Z,100842.31
2024-04-19T14:41:43.809Z,100831.81
2024-04-19T14:44:13.228Z,100824.84
2024-04-19T14:46:40.470Z,100823.19
2024-04-19T14:49:08.175Z,100829.31
2024-04-19T14:51:35.586Z,100820.34
2024-04-19T14:54:03.091Z,100819.31
2024-04-19T14:56:30.934Z,100838.47
2024-04-19T14:59:06.942Z,100829.53
2024-04-19T15:01:41.185Z,100825.28
2024-04-19T15:04:09.890Z,100844.66
2024-04-19T15:06:40.705Z,100862.88
2024-04-19T15:09:09.127Z,100846.44
2024-04-19T15:11:37.373Z,100834.25
2024-04-19T15:14:05.278Z,100865.16
2024-04-19T15:16:33.778Z,100857.44
2024-04-19T15:19:01.222Z,100864.56
2024-04-19T15:21:28.684Z,100867.13
2024-04-19T15:23:56.297Z,100854.59
2024-04-19T15:26:23.625Z,100869.16
2024-04-19T15:28:51.084Z,100874.75
2024-04-19T15:31:20.934Z,100847.59
2024-04-19T15:33:48.242Z,100878.22
2024-04-19T15:36:15.997Z,100880.19
2024-04-19T15:38:44.220Z,100890.28
2024-04-19T15:41:13.050Z,100884.38
2024-04-19T15:43:40.442Z,100898.47
2024-04-19T15:46:08.733Z,100898.38
2024-04-19T15:48:36.087Z,100910.72
2024-04-19T15:51:06.667Z,100891.28
2024-04-19T15:53:34.303Z,100895.50
2024-04-19T15:56:01.750Z,100904.13
2024-04-19T15:58:29.433Z,100911.00
2024-04-19T16:00:56.951Z,100920.69
2024-04-19T16:03:24.527Z,100921.63
2024-04-19T16:05:51.755Z,100914.09
2024-04-19T16:08:20.084Z,100921.59
2024-04-19T16:10:47.610Z,100926.28
2024-04-19T16:13:14.857Z,100934.41
2024-04-19T16:15:42.539Z,100934.53
2024-04-19T16:18:10.321Z,100946.00
2024-04-19T16:20:37.709Z,100953.13
2024-04-19T16:23:05.226Z,100962.97
2024-04-19T16:25:32.460Z,100951.66
2024-04-19T16:28:02.825Z,100933.19
2024-04-19T16:30:31.064Z,100941.09
2024-04-19T16:32:59.097Z,100953.38
2024-04-19T16:35:26.506Z,100943.50
2024-04-19T16:37:53.908Z,100952.28
2024-04-19T16:40:21.554Z,100950.56
2024-04-19T16:42:48.851Z,100976.97
2024-04-19T16:45:17.360Z,100959.34
2024-04-19T16:47:51.290Z,100956.44
2024-04-19T16:50:20.700Z,100961.38
2024-04-19T16:52:48.064Z,100952.09
2024-04-19T16:55:17.386Z,100966.69
2024-04-19T16:57:44.719Z,100971.53
2024-04-19T17:00:13.080Z,100966.69
2024-04-19T17:02:40.380Z,100989.25
2024-04-19T17:05:07.910Z,100986.78
2024-04-19T17:07:35.094Z,100997.28
2024-04-19T17:10:02.471Z,100996.34
2024-04-19T17:12:29.924Z,100988.03
2024-04-19T17:14:57.283Z,100991.72
2024-04-19T17:17:26.617Z,101002.31
2024-04-19T17:19:54.293Z,100995.25
2024-04-19T17:22:21.723Z,101001.47
2024-04-19T17:24:49.646Z,100991.84
2024-04-19T17:27:17.573Z,100998.13
2024-04-19T17:29:45.111Z,100989.38
2024-04-19T17:32:12.622Z,101000.81
2024-04-19T17:34:41.384Z,100990.25
2024-04-19T17:37:08.680Z,100992.84
2024-04-19T17:39:36.567Z,101002.47
2024-04-19T17:42:04.007Z,101008.53
2024-04-19T17:44:35.362Z,101030.38
2024-04-19T17:47:04.058Z,101019.81
2024-04-19T17:49:31.496Z,101019.91
2024-04-19T17:51:59.005Z,101006.78
2024-04-19T17:54:26.598Z,101025.22
2024-04-19T17:56:53.905Z,101036.59
2024-04-19T17:59:21.587Z,101043.47
2024-04-19T18:01:49.039Z,101029.31
2024-04-19T18:04:17.665Z,101038.84
2024-04-19T18:06:45.010Z,101049.25
2024-04-19T18:09:12.871Z,101048.31
2024-04-19T18:11:40.124Z,101047.31
2024-04-19T18:14:07.356Z,101059.50
2024-04-19T18:16:36.119Z,101074.28
2024-04-19T18:19:05.724Z,101067.13
2024-04-19T18:21:33.364Z,101060.91
2024-04-19T18:24:04.746Z,101049.38
2024-04-19T18:26:47.984Z,101075.50
2024-04-19T18:29:15.146Z,101081.50
2024-04-19T18:31:42.711Z,101090.16
2024-04-19T18:34:15.142Z,101092.63
2024-04-19T18:36:45.614Z,101091.63
2024-04-19T18:39:13.681Z,101083.66
2024-04-19T18:41:40.973Z,101091.41
2024-04-19T18:44:08.510Z,101100.09
2024-04-19T18:46:35.893Z,101099.13
2024-04-19T18:49:04.918Z,101113.06
2024-04-19T18:51:32.547Z,101121.72
2024-04-19T18:54:00.024Z,101101.63
2024-04-19T18:56:27.447Z,101119.94
2024-04-19T18:58:54.760Z,101120.81
2024-04-19T19:01:22.176Z,101130.47
2024-04-19T19:03:49.965Z,101116.50
2024-04-19T19:06:17.971Z,101138.31
2024-04-19T19:08:45.297Z,101133.06
2024-04-19T19:11:14.104Z,101146.25
2024-04-19T19:13:44.404Z,101153.28
2024-04-19T19:16:11.829Z,101148.91
2024-04-19T19:18:39.686Z,101155.03
2024-04-19T19:21:07.254Z,101166.38
2024-04-19T19:23:34.852Z,101172.38
2024-04-19T19:26:06.281Z,101173.88
2024-04-19T19:28:34.038Z,101175.34
2024-04-19T19:31:01.574Z,101185.63
2024-04-19T19:33:28.949Z,101178.56
2024-04-19T19:36:02.504Z,101189.84
2024-04-19T19:38:33.290Z,101209.88
2024-04-19T19:41:00.859Z,101215.94
2024-04-19T19:43:33.183Z,101207.06
2024-04-19T19:46:03.903Z,101208.63
2024-04-19T19:48:35.030Z,101203.19
2024-04-19T19:51:05.727Z,101211.81
2024-04-19T19:53:33.359Z,101219.66
2024-04-19T19:56:04.697Z,101213.50
2024-04-19T19:58:31.938Z,101223.03
2024-04-19T20:01:18.042Z,101223.09
2024-04-19T20:04:14.369Z,101216.06
2024-04-19T20:06:41.633Z,101224.84
2024-04-19T20:09:09.050Z,101230.09
2024-04-19T20:11:39.364Z,101224.84
2024-04-19T20:14:09.061Z,101237.97
2024-04-19T20:16:36.253Z,101240.59
2024-04-19T20:19:05.302Z,101238.94
2024-04-19T20:21:32.678Z,101238.97
2024-04-19T20:23:59.954Z,101230.28
2024-04-19T20:26:28.329Z,101238.13
2024-04-19T20:29:01.626Z,101252.97
2024-04-19T20:31:35.963Z,101245.97
2024-04-19T20:34:03.335Z,101249.50
2024-04-19T20:36:32.972Z,101254.75
2024-04-19T20:39:03.498Z,101261.75
2024-04-19T20:41:33.420Z,101255.59
2024-04-19T20:44:03.690Z,101267.66
2024-04-19T20:46:33.957Z,101261.38
2024-04-19T20:49:01.518Z,101269.19
2024-04-19T20:51:30.223Z,101275.19
2024-04-19T20:53:58.585Z,101277.75
2024-04-19T20:56:26.550Z,101282.97
2024-04-19T20:58:54.029Z,101283.84
2024-04-19T21:01:21.313Z,101278.59
2024-04-19T21:03:48.642Z,101284.66
2024-04-19T21:06:17.336Z,101282.84
2024-04-19T21:08:45.084Z,101283.63
2024-04-19T21:11:12.511Z,101283.59
2024-04-19T21:13:39.650Z,101296.59
2024-04-19T21:16:15.910Z,101293.03
2024-04-19T21:18:45.240Z,101297.25
2024-04-19T21:21:13.002Z,101307.66
2024-04-19T21:23:49.349Z,101301.50
2024-04-19T21:26:16.718Z,101320.72
2024-04-19T21:28:44.097Z,101308.41
2024-04-19T21:31:14.681Z,101316.28
2024-04-19T21:33:42.119Z,101317.22
2024-04-19T21:36:10.094Z,101319.88
2024-04-19T21:38:37.857Z,101319.03
2024-04-19T21:41:08.513Z,101325.13
2024-04-19T21:43:36.746Z,101331.19
2024-04-19T21:46:08.252Z,101332.06
2024-04-19T21:48:36.807Z,101334.69
2024-04-19T21:51:05.800Z,101340.88
2024-04-19T21:53:33.030Z,101337.41
2024-04-19T21:56:00.620Z,101343.50
2024-04-19T21:58:28.052Z,101338.22
2024-04-19T22:00:55.358Z,101340.81
2024-04-19T22:03:22.704Z,101352.09
2024-04-19T22:05:50.210Z,101338.00
2024-04-19T22:08:17.582Z,101340.56
2024-04-19T22:10:44.941Z,101342.28
2024-04-19T22:13:14.522Z,101351.88
2024-04-19T22:15:45.124Z,101345.72
2024-04-19T22:18:12.359Z,101353.53
2024-04-19T22:20:39.668Z,101353.56
2024-04-19T22:23:07.061Z,101359.66
2024-04-19T22:25:40.323Z,101357.78
2024-04-19T22:28:09.749Z,101358.66
2024-04-19T22:30:37.202Z,101360.31
2024-04-19T22:33:04.602Z,101361.16
2024-04-19T22:35:31.888Z,101372.47
2024-04-19T22:37:59.148Z,101379.50
2024-04-19T22:40:28.732Z,101372.53
2024-04-19T22:42:57.994Z,101383.94
2024-04-19T22:45:25.386Z,101385.75
2024-04-19T22:47:52.740Z,101385.91
2024-04-19T22:50:20.439Z,101392.06
2024-04-19T22:52:47.842Z,101392.19
2024-04-19T22:55:15.195Z,101386.97
2024-04-19T22:57:42.828Z,101390.47
2024-04-19T23:00:14.753Z,101403.50
2024-04-19T23:02:42.073Z,101397.44
2024-04-19T23:05:09.495Z,101403.59
2024-04-19T23:07:37.201Z,101407.13
2024-04-19T23:10:04.825Z,101411.50
2024-04-19T23:12:32.071Z,101412.38
2024-04-19T23:15:02.667Z,101407.97
2024-04-19T23:17:31.552Z,101421.03
2024-04-19T23:20:02.112Z,101418.41
2024-04-19T23:22:29.675Z,101420.16
2024-04-19T23:24:57.258Z,101417.53
2024-04-19T23:27:24.718Z,101415.78
2024-04-19T23:29:52.545Z,101423.59
2024-04-19T23:32:19.829Z,101426.13
2024-04-19T23:34:48.993Z,101430.56
2024-04-19T23:37:16.178Z,101444.53
2024-04-19T23:39:46.212Z,101446.19
2024-04-19T23:42:13.740Z,101447.81
2024-04-19T23:44:41.251Z,101440.63
2024-04-19T23:47:10.677Z,101444.09
2024-04-19T23:49:37.900Z,101451.03
2024-04-19T23:52:05.489Z,101454.53
2024-04-19T23:54:32.763Z,101454.44
2024-04-19T23:57:00.554Z,101452.63
2024-04-19T23:59:28.818Z,101456.97
